Time;durP1;ratioP1;P1;durP2;ratioP2;P2;SDS_P1;SDS_P2;PMS_P1;PMS_P2;Temp;Humidity;BMP_temperature;BMP_pressure;BME280_temperature;BME280_humidity;BME280_pressure;Samples;Min_cycle;Max_cycle;Signal;HPM_P1;HPM_P2
2023/09/04 00:00:57;;;;;;;9.57;4.78;;;14.70;99.90;;;;;;5050605;28;20045;-66
2023/09/04 00:03:25;;;;;;;7.38;4.75;;;14.60;99.90;;;;;;5050541;28;20088;-64
2023/09/04 00:05:50;;;;;;;8.20;4.90;;;14.60;99.90;;;;;;5032723;28;20430;-64
2023/09/04 00:08:17;;;;;;;7.68;5.03;;;14.60;99.90;;;;;;5031866;28;20044;-64
2023/09/04 00:10:43;;;;;;;5.72;4.60;;;14.60;99.90;;;;;;5029495;28;20445;-64
2023/09/04 00:13:09;;;;;;;8.93;4.30;;;14.60;99.90;;;;;;5032608;28;20047;-65
2023/09/04 00:15:35;;;;;;;7.97;4.47;;;14.60;99.90;;;;;;5016767;28;20036;-64
2023/09/04 00:18:01;;;;;;;8.90;4.93;;;14.60;99.90;;;;;;5033495;28;20045;-64
2023/09/04 00:20:26;;;;;;;9.00;4.70;;;14.60;99.90;;;;;;5031556;28;20051;-65
2023/09/04 00:22:52;;;;;;;6.97;4.68;;;14.50;99.90;;;;;;5050568;28;20036;-64
2023/09/04 00:25:18;;;;;;;5.60;4.72;;;14.50;99.90;;;;;;5033234;28;20373;-64
2023/09/04 00:27:43;;;;;;;7.00;4.93;;;14.50;99.90;;;;;;5048059;28;20033;-64
2023/09/04 00:30:09;;;;;;;6.70;4.50;;;14.50;99.90;;;;;;5051054;28;20044;-64
2023/09/04 00:32:35;;;;;;;6.55;4.40;;;14.50;99.90;;;;;;5049640;28;20036;-64
2023/09/04 00:35:00;;;;;;;5.05;4.20;;;14.40;99.90;;;;;;5049932;28;20114;-64
2023/09/04 00:37:26;;;;;;;5.03;4.15;;;14.50;99.90;;;;;;5048910;28;20052;-64
2023/09/04 00:39:52;;;;;;;6.35;4.10;;;14.40;99.90;;;;;;5049471;28;20462;-64
2023/09/04 00:42:17;;;;;;;7.50;4.07;;;14.40;99.90;;;;;;5049951;28;20128;-64
2023/09/04 00:44:46;;;;;;;9.65;4.45;;;14.40;99.90;;;;;;5049531;28;20037;-64
2023/09/04 00:47:14;;;;;;;7.35;4.55;;;14.30;99.90;;;;;;5032258;28;20041;-64
2023/09/04 00:49:41;;;;;;;6.05;4.22;;;14.30;99.90;;;;;;5049451;28;20037;-64
2023/09/04 00:52:08;;;;;;;6.07;3.67;;;14.30;99.90;;;;;;5049648;28;20126;-64
2023/09/04 00:54:35;;;;;;;7.38;4.57;;;14.30;99.90;;;;;;5049336;28;20037;-64
2023/09/04 00:57:03;;;;;;;6.25;4.30;;;14.30;99.90;;;;;;5049382;28;20037;-64
2023/09/04 00:59:29;;;;;;;7.15;4.20;;;14.20;99.90;;;;;;5031468;28;20134;-64
2023/09/04 01:01:58;;;;;;;7.60;4.53;;;14.30;99.90;;;;;;5049500;28;20064;-64
2023/09/04 01:04:24;;;;;;;7.07;4.22;;;14.20;99.90;;;;;;5042370;28;20119;-64
2023/09/04 01:06:50;;;;;;;9.57;4.13;;;14.30;99.90;;;;;;5048960;28;20112;-64
2023/09/04 01:09:16;;;;;;;9.38;3.90;;;14.20;99.90;;;;;;5049716;28;20521;-64
2023/09/04 01:11:55;;;;;;;6.90;4.10;;;14.20;99.90;;;;;;5034912;28;20091;-64
2023/09/04 01:14:23;;;;;;;6.65;3.92;;;14.20;99.90;;;;;;5044573;28;20045;-64
2023/09/04 01:16:49;;;;;;;4.57;3.72;;;14.10;99.90;;;;;;5049301;28;20135;-64
2023/09/04 01:19:17;;;;;;;7.45;4.25;;;14.10;99.90;;;;;;5049144;28;20483;-64
2023/09/04 01:21:43;;;;;;;8.82;4.60;;;14.10;99.90;;;;;;5031580;28;20044;-64
2023/09/04 01:24:09;;;;;;;6.38;3.80;;;14.00;99.90;;;;;;5046543;28;20059;-64
2023/09/04 01:27:20;;;;;;;5.40;4.03;;;14.00;99.90;;;;;;5038202;28;20045;-64
2023/09/04 01:30:07;;;;;;;6.30;3.83;;;14.00;99.90;;;;;;5038607;28;20122;-64
2023/09/04 01:32:39;;;;;;;6.07;3.55;;;14.00;99.90;;;;;;5049287;28;20044;-64
2023/09/04 01:35:07;;;;;;;4.68;3.40;;;13.90;99.90;;;;;;5029453;28;20056;-64
2023/09/04 01:37:34;;;;;;;6.05;3.50;;;13.90;99.90;;;;;;5049099;28;20040;-64
2023/09/04 01:40:00;;;;;;;5.53;3.20;;;13.90;99.90;;;;;;5039989;28;20252;-64
2023/09/04 01:42:26;;;;;;;5.20;2.97;;;13.90;99.90;;;;;;5048938;28;20049;-64
2023/09/04 01:44:51;;;;;;;3.97;2.90;;;13.80;99.90;;;;;;5049390;28;20495;-64
2023/09/04 01:47:17;;;;;;;8.05;3.35;;;13.80;99.90;;;;;;5049125;28;20121;-64
2023/09/04 01:49:43;;;;;;;10.07;4.90;;;13.80;99.90;;;;;;5052251;28;20041;-64
2023/09/04 01:52:09;;;;;;;6.95;5.10;;;13.80;99.90;;;;;;5036867;28;20041;-64
2023/09/04 01:54:36;;;;;;;9.75;5.50;;;13.80;99.90;;;;;;5041811;28;20096;-64
2023/09/04 01:57:01;;;;;;;9.13;6.00;;;13.80;99.90;;;;;;5052983;28;20503;-64
2023/09/04 01:59:27;;;;;;;7.88;5.75;;;13.80;99.90;;;;;;5049234;28;20040;-64
2023/09/04 02:01:52;;;;;;;7.00;5.30;;;13.80;99.90;;;;;;5060542;28;20107;-64
2023/09/04 02:04:18;;;;;;;6.28;4.15;;;13.80;99.90;;;;;;5052208;28;20114;-64
2023/09/04 02:06:44;;;;;;;6.10;3.83;;;13.80;99.90;;;;;;5048410;28;20035;-64
2023/09/04 02:09:09;;;;;;;5.43;3.63;;;13.70;99.90;;;;;;5051745;28;20029;-64
2023/09/04 02:11:35;;;;;;;6.80;3.60;;;13.70;99.90;;;;;;5052086;28;20033;-64
2023/09/04 02:14:00;;;;;;;6.47;4.70;;;13.70;99.90;;;;;;5020291;28;20045;-64
2023/09/04 02:16:27;;;;;;;7.13;5.32;;;13.70;99.90;;;;;;5047819;28;20128;-64
2023/09/04 02:18:55;;;;;;;11.52;6.22;;;13.70;99.90;;;;;;5051372;28;20049;-64
2023/09/04 02:21:21;;;;;;;8.82;6.43;;;13.70;99.90;;;;;;5052170;28;20047;-64
2023/09/04 02:23:47;;;;;;;10.63;6.30;;;13.70;99.90;;;;;;5052040;28;20124;-64
2023/09/04 02:26:12;;;;;;;8.25;6.55;;;13.70;99.90;;;;;;5052129;28;20037;-64
2023/09/04 02:28:38;;;;;;;6.65;5.25;;;13.70;99.90;;;;;;5033365;28;20037;-64
2023/09/04 02:31:06;;;;;;;7.88;5.22;;;13.60;99.90;;;;;;5051821;28;20108;-64
2023/09/04 02:33:32;;;;;;;8.73;5.25;;;13.60;99.90;;;;;;5051974;28;20123;-64
2023/09/04 02:35:58;;;;;;;11.07;5.43;;;13.60;99.90;;;;;;5058473;28;20153;-64
2023/09/04 02:38:23;;;;;;;8.82;5.20;;;13.50;99.90;;;;;;5026981;28;20175;-64
2023/09/04 02:40:49;;;;;;;11.85;6.65;;;13.50;99.90;;;;;;5051442;28;20043;-64
2023/09/04 02:43:14;;;;;;;8.55;6.50;;;13.50;99.90;;;;;;5051957;28;20503;-64
2023/09/04 02:45:40;;;;;;;9.30;6.35;;;13.50;99.90;;;;;;5056503;22;20048;-74
2023/09/04 02:48:08;;;;;;;8.82;6.22;;;13.50;99.90;;;;;;5044365;28;20075;-74
2023/09/04 02:50:34;;;;;;;7.80;5.55;;;13.50;99.90;;;;;;5046068;28;20373;-74
2023/09/04 02:53:00;;;;;;;9.18;6.03;;;13.50;99.90;;;;;;5049046;28;20044;-74
2023/09/04 02:55:26;;;;;;;8.02;5.45;;;13.60;99.90;;;;;;5018396;28;20501;-74
2023/09/04 02:57:52;;;;;;;8.35;5.70;;;13.50;99.90;;;;;;5052913;28;20041;-74
2023/09/04 03:00:19;;;;;;;7.82;5.63;;;13.50;99.90;;;;;;5050918;28;20051;-74
2023/09/04 03:02:46;;;;;;;8.93;5.20;;;13.60;99.90;;;;;;5037460;28;20143;-74
2023/09/04 03:05:14;;;;;;;8.90;4.88;;;13.50;99.90;;;;;;5049616;28;20103;-74
2023/09/04 03:07:41;;;;;;;7.95;4.97;;;13.50;99.90;;;;;;5050769;28;20049;-74
2023/09/04 03:10:07;;;;;;;7.28;5.18;;;13.50;99.90;;;;;;5035256;28;20058;-74
2023/09/04 03:12:33;;;;;;;8.73;6.15;;;13.50;99.90;;;;;;5050040;28;20083;-74
2023/09/04 03:15:04;;;;;;;10.57;7.10;;;13.50;99.90;;;;;;5034145;28;20405;-74
2023/09/04 03:17:31;;;;;;;9.93;6.95;;;13.50;99.90;;;;;;5035552;28;20049;-74
2023/09/04 03:19:58;;;;;;;12.27;7.57;;;13.50;99.90;;;;;;5053227;28;20572;-74
2023/09/04 03:22:25;;;;;;;9.07;7.60;;;13.50;99.90;;;;;;5052163;28;20037;-74
2023/09/04 03:24:52;;;;;;;8.57;7.10;;;13.50;99.90;;;;;;5018267;28;20048;-74
2023/09/04 03:27:19;;;;;;;7.55;5.65;;;13.50;99.90;;;;;;5015586;28;20496;-74
2023/09/04 03:29:48;;;;;;;7.95;5.60;;;13.50;99.90;;;;;;5050346;28;20334;-74
2023/09/04 03:32:14;;;;;;;6.95;5.40;;;13.40;99.90;;;;;;5053467;28;20048;-74
2023/09/04 03:34:41;;;;;;;6.30;4.97;;;13.40;99.90;;;;;;5051423;28;20473;-74
2023/09/04 03:37:06;;;;;;;8.13;5.82;;;13.40;99.90;;;;;;5053722;28;20048;-74
2023/09/04 03:39:37;;;;;;;7.75;5.65;;;13.30;99.90;;;;;;5053080;28;20400;-74
2023/09/04 03:42:08;;;;;;;8.80;5.65;;;13.30;99.90;;;;;;5028876;28;20049;-74
2023/09/04 03:44:34;;;;;;;10.15;6.38;;;13.30;99.90;;;;;;5030536;28;20033;-74
2023/09/04 03:47:03;;;;;;;8.38;6.55;;;13.20;99.90;;;;;;5012562;28;20120;-74
2023/09/04 03:49:31;;;;;;;8.88;6.50;;;13.20;99.90;;;;;;5030603;28;20121;-75
2023/09/04 03:51:56;;;;;;;9.68;6.93;;;13.30;99.90;;;;;;5035642;28;20028;-74
2023/09/04 03:54:24;;;;;;;9.40;6.50;;;13.20;99.90;;;;;;5034454;28;20369;-74
2023/09/04 03:56:50;;;;;;;13.40;6.65;;;13.20;99.90;;;;;;5051697;28;20040;-75
2023/09/04 03:59:17;;;;;;;12.45;6.63;;;13.20;99.90;;;;;;5029897;28;20087;-74
2023/09/04 04:01:47;;;;;;;9.10;6.20;;;13.20;99.90;;;;;;5034771;28;20037;-74
2023/09/04 04:04:13;;;;;;;8.77;6.45;;;13.10;99.90;;;;;;5028975;28;20052;-74
2023/09/04 04:06:41;;;;;;;8.63;6.13;;;13.10;99.90;;;;;;5036511;28;20044;-74
2023/09/04 04:09:07;;;;;;;9.93;6.18;;;13.10;99.90;;;;;;5033827;28;20076;-75
2023/09/04 04:11:35;;;;;;;9.23;6.05;;;13.00;99.90;;;;;;5030501;28;20048;-74
2023/09/04 04:14:00;;;;;;;9.98;6.38;;;13.00;99.90;;;;;;5051839;28;20041;-74
2023/09/04 04:16:26;;;;;;;7.78;5.97;;;13.00;99.90;;;;;;5033252;28;20127;-74
2023/09/04 04:18:52;;;;;;;7.82;5.93;;;12.90;99.90;;;;;;5032677;28;20047;-74
2023/09/04 04:21:17;;;;;;;7.90;5.65;;;12.90;99.90;;;;;;5052014;28;20037;-74
2023/09/04 04:23:43;;;;;;;8.20;5.43;;;12.90;99.90;;;;;;5050716;28;20045;-74
2023/09/04 04:26:09;;;;;;;8.18;5.82;;;12.80;99.90;;;;;;5051108;28;20087;-74
2023/09/04 04:28:35;;;;;;;7.40;5.60;;;12.80;99.90;;;;;;5043398;28;20045;-74
2023/09/04 04:31:02;;;;;;;7.65;5.28;;;12.80;99.90;;;;;;5010313;28;20033;-74
2023/09/04 04:33:27;;;;;;;7.13;5.63;;;12.80;99.90;;;;;;5049940;28;20120;-74
2023/09/04 04:35:53;;;;;;;9.75;6.75;;;12.80;99.90;;;;;;5048838;28;20036;-74
2023/09/04 04:38:19;;;;;;;8.13;6.15;;;12.70;99.90;;;;;;5031186;28;20049;-74
2023/09/04 04:40:44;;;;;;;8.82;6.18;;;12.70;99.90;;;;;;5031517;28;20087;-74
2023/09/04 04:43:10;;;;;;;8.15;6.28;;;12.70;99.90;;;;;;5050009;28;20044;-74
2023/09/04 04:45:36;;;;;;;7.97;5.75;;;12.70;99.90;;;;;;5048261;28;20087;-74
2023/09/04 04:48:03;;;;;;;8.65;6.07;;;12.70;99.90;;;;;;5049629;28;20033;-74
2023/09/04 04:50:29;;;;;;;7.35;5.70;;;12.70;99.90;;;;;;5001330;28;20048;-74
2023/09/04 04:52:55;;;;;;;8.18;5.90;;;12.60;99.90;;;;;;5050434;28;20033;-74
2023/09/04 04:55:21;;;;;;;8.05;6.13;;;12.60;99.90;;;;;;5052518;28;20072;-74
2023/09/04 04:57:48;;;;;;;9.05;5.85;;;12.90;99.90;;;;;;5034378;28;20044;-74
2023/09/04 05:00:14;;;;;;;8.90;5.88;;;12.60;99.90;;;;;;5049941;28;20045;-74
2023/09/04 05:02:39;;;;;;;8.05;5.90;;;12.60;99.90;;;;;;5018173;28;20055;-74
2023/09/04 05:05:07;;;;;;;7.55;5.32;;;12.60;99.90;;;;;;5029975;28;20037;-73
2023/09/04 05:07:34;;;;;;;6.85;5.50;;;12.70;99.90;;;;;;5014449;28;20039;-72
2023/09/04 05:10:01;;;;;;;7.88;5.43;;;12.60;99.90;;;;;;5052310;28;20404;-73
2023/09/04 05:12:27;;;;;;;8.50;5.82;;;12.60;99.90;;;;;;5034528;28;20044;-73
2023/09/04 05:14:53;;;;;;;7.20;5.82;;;12.60;99.90;;;;;;5050537;28;20378;-73
2023/09/04 05:17:19;;;;;;;10.38;6.60;;;12.70;99.90;;;;;;5019110;28;20051;-76
2023/09/04 05:19:44;;;;;;;10.00;7.70;;;12.60;99.90;;;;;;5034662;28;20128;-76
2023/09/04 05:22:10;;;;;;;10.35;8.18;;;12.70;99.90;;;;;;5016618;28;20051;-76
2023/09/04 05:24:35;;;;;;;11.27;8.63;;;12.70;99.90;;;;;;5040154;28;20120;-76
2023/09/04 05:27:05;;;;;;;11.73;8.88;;;12.80;99.90;;;;;;5035506;28;20033;-75
2023/09/04 05:29:33;;;;;;;12.30;9.02;;;12.80;99.90;;;;;;5020902;28;20044;-76
2023/09/04 05:31:59;;;;;;;10.23;7.85;;;12.80;99.90;;;;;;5055086;28;20032;-76
2023/09/04 05:34:25;;;;;;;8.85;7.07;;;12.80;99.90;;;;;;5028782;28;20042;-76
2023/09/04 05:36:52;;;;;;;11.38;7.72;;;12.90;99.90;;;;;;5053892;28;20041;-75
2023/09/04 05:39:19;;;;;;;10.18;7.70;;;12.80;99.90;;;;;;5053882;28;20532;-75
2023/09/04 05:41:45;;;;;;;12.73;8.00;;;13.00;99.90;;;;;;5036255;28;20102;-76
2023/09/04 05:44:11;;;;;;;14.13;9.07;;;12.90;99.90;;;;;;5036694;28;20087;-76
2023/09/04 05:46:36;;;;;;;13.55;9.27;;;12.90;99.90;;;;;;5055216;28;20041;-76
2023/09/04 05:49:02;;;;;;;14.05;9.90;;;12.90;99.90;;;;;;5054619;28;20029;-76
2023/09/04 05:51:32;;;;;;;15.05;9.63;;;12.90;99.90;;;;;;5055187;28;20030;-76
2023/09/04 05:53:57;;;;;;;12.10;8.98;;;13.00;99.90;;;;;;5035800;28;20128;-75
2023/09/04 05:56:23;;;;;;;13.63;9.60;;;13.00;99.90;;;;;;5039847;28;20079;-76
2023/09/04 05:58:50;;;;;;;13.70;9.75;;;13.00;99.90;;;;;;5052866;28;20098;-75
2023/09/04 06:01:18;;;;;;;15.52;9.68;;;13.10;99.90;;;;;;5053994;28;20075;-75
2023/09/04 06:03:45;;;;;;;12.10;9.43;;;13.10;99.90;;;;;;5052633;28;20136;-75
2023/09/04 06:06:10;;;;;;;10.85;9.25;;;13.10;99.90;;;;;;5053966;28;20044;-75
2023/09/04 06:08:37;;;;;;;13.32;8.98;;;13.20;99.90;;;;;;5054048;28;20041;-75
2023/09/04 06:11:06;;;;;;;12.57;9.65;;;13.20;99.90;;;;;;5036128;28;20045;-75
2023/09/04 06:13:32;;;;;;;11.88;9.32;;;13.20;99.90;;;;;;5021096;28;20041;-75
2023/09/04 06:15:59;;;;;;;11.35;9.48;;;13.20;99.90;;;;;;5046151;28;20051;-75
2023/09/04 06:18:29;;;;;;;12.05;9.50;;;13.30;99.90;;;;;;5054212;28;20041;-75
2023/09/04 06:20:56;;;;;;;13.68;10.00;;;13.70;99.90;;;;;;5048560;28;20069;-75
2023/09/04 06:23:25;;;;;;;14.27;9.95;;;13.30;99.90;;;;;;5037578;28;20436;-75
2023/09/04 06:25:52;;;;;;;13.05;10.45;;;13.30;99.90;;;;;;5049711;28;20047;-75
2023/09/04 06:28:17;;;;;;;15.18;10.20;;;13.80;99.90;;;;;;5053111;28;20423;-75
2023/09/04 06:30:46;;;;;;;13.25;10.38;;;13.30;99.90;;;;;;5036064;28;20049;-75
2023/09/04 06:33:12;;;;;;;13.48;9.85;;;13.40;99.90;;;;;;5053463;28;20077;-75
2023/09/04 06:35:37;;;;;;;12.93;10.23;;;13.40;99.90;;;;;;5036398;28;20514;-75
2023/09/04 06:38:03;;;;;;;14.20;9.43;;;13.50;99.90;;;;;;5053917;28;20047;-75
2023/09/04 06:40:34;;;;;;;12.43;9.90;;;13.50;99.90;;;;;;5036287;28;20037;-75
2023/09/04 06:42:59;;;;;;;12.73;9.57;;;13.50;99.90;;;;;;5036249;28;20049;-75
2023/09/04 06:45:26;;;;;;;13.80;10.50;;;13.50;99.90;;;;;;5052474;28;20100;-75
2023/09/04 06:47:53;;;;;;;12.98;9.70;;;13.70;99.90;;;;;;5015523;28;20072;-75
2023/09/04 06:50:19;;;;;;;13.82;9.52;;;13.60;99.90;;;;;;5019234;28;20036;-75
2023/09/04 06:52:44;;;;;;;11.80;9.65;;;13.60;99.90;;;;;;5036907;28;20114;-74
2023/09/04 06:55:12;;;;;;;13.52;9.57;;;13.70;99.90;;;;;;5035251;28;20056;-75
2023/09/04 06:57:38;;;;;;;12.18;9.93;;;13.70;99.90;;;;;;5053001;28;20064;-75
2023/09/04 07:00:09;;;;;;;11.60;9.48;;;13.80;99.90;;;;;;5054373;28;20029;-75
2023/09/04 07:02:36;;;;;;;16.10;10.95;;;13.80;99.90;;;;;;5017607;28;20041;-75
2023/09/04 07:05:02;;;;;;;15.18;11.38;;;13.90;99.90;;;;;;5035483;28;20125;-75
2023/09/04 07:07:35;;;;;;;14.63;11.52;;;13.90;99.90;;;;;;5035704;28;20053;-75
2023/09/04 07:10:01;;;;;;;13.98;10.98;;;14.00;99.90;;;;;;5035744;28;20049;-75
2023/09/04 07:12:27;;;;;;;18.38;10.38;;;14.10;99.90;;;;;;5034920;28;20048;-75
2023/09/04 07:14:53;;;;;;;17.27;11.65;;;14.10;99.90;;;;;;5034644;28;20064;-75
2023/09/04 07:17:18;;;;;;;15.15;11.05;;;14.20;99.90;;;;;;5052363;28;20129;-76
2023/09/04 07:19:44;;;;;;;12.93;10.88;;;14.20;99.90;;;;;;5052814;28;20040;-75
2023/09/04 07:22:10;;;;;;;14.45;10.82;;;14.20;99.90;;;;;;5052656;28;20033;-76
2023/09/04 07:24:36;;;;;;;15.73;11.40;;;14.30;99.90;;;;;;5017985;28;20028;-75
2023/09/04 07:27:02;;;;;;;15.07;12.27;;;14.30;99.90;;;;;;5043894;28;20052;-75
2023/09/04 07:29:28;;;;;;;14.43;12.48;;;14.40;99.90;;;;;;5035064;28;20516;-76
2023/09/04 07:31:58;;;;;;;17.27;11.77;;;14.50;99.90;;;;;;5018188;28;20075;-75
2023/09/04 07:34:23;;;;;;;14.57;11.30;;;14.50;99.90;;;;;;5052764;28;20135;-75
2023/09/04 07:36:52;;;;;;;15.10;11.20;;;14.60;99.90;;;;;;5035210;28;20053;-75
2023/09/04 07:39:18;;;;;;;15.73;11.68;;;14.70;99.90;;;;;;5052184;28;20120;-75
2023/09/04 07:41:44;;;;;;;12.57;11.07;;;14.80;99.90;;;;;;5035455;28;20437;-75
2023/09/04 07:44:12;;;;;;;13.52;11.25;;;14.70;99.90;;;;;;5034229;28;20052;-75
2023/09/04 07:46:41;;;;;;;13.55;11.40;;;14.80;99.90;;;;;;5034246;28;20037;-75
2023/09/04 07:49:08;;;;;;;12.70;10.50;;;14.90;99.90;;;;;;5034634;28;20045;-75
2023/09/04 07:51:34;;;;;;;15.60;11.25;;;14.90;99.90;;;;;;5046728;28;20029;-75
2023/09/04 07:54:00;;;;;;;13.88;11.07;;;15.00;99.90;;;;;;5052642;28;20041;-75
2023/09/04 07:56:25;;;;;;;13.25;10.52;;;15.00;99.90;;;;;;5034473;28;20045;-75
2023/09/04 07:58:51;;;;;;;13.07;10.75;;;15.10;99.90;;;;;;5034285;28;20041;-75
2023/09/04 08:01:17;;;;;;;14.63;11.93;;;15.20;99.90;;;;;;5017425;28;20036;-75
2023/09/04 08:03:43;;;;;;;13.23;11.13;;;15.30;99.90;;;;;;5031378;28;20190;-75
2023/09/04 08:06:09;;;;;;;13.88;10.60;;;15.40;99.90;;;;;;5017319;28;20216;-75
2023/09/04 08:08:37;;;;;;;14.25;10.77;;;15.40;99.90;;;;;;5051350;28;20040;-75
2023/09/04 08:11:03;;;;;;;13.55;11.10;;;15.50;99.90;;;;;;5012517;28;20033;-75
2023/09/04 08:13:31;;;;;;;15.25;10.68;;;15.60;99.90;;;;;;5034536;28;20040;-75
2023/09/04 08:15:59;;;;;;;12.20;10.77;;;15.60;99.90;;;;;;5016242;28;20048;-75
2023/09/04 08:18:24;;;;;;;15.30;11.20;;;15.70;99.90;;;;;;5029590;28;20055;-75
2023/09/04 08:20:50;;;;;;;12.00;10.73;;;15.70;99.90;;;;;;5051582;28;20037;-75
2023/09/04 08:23:16;;;;;;;11.45;9.23;;;15.80;99.90;;;;;;5033696;28;20053;-75
2023/09/04 08:25:43;;;;;;;11.93;9.57;;;15.90;99.90;;;;;;5034482;28;20112;-75
2023/09/04 08:28:09;;;;;;;13.43;9.70;;;16.00;99.90;;;;;;5016700;28;20128;-74
2023/09/04 08:30:34;;;;;;;12.63;9.20;;;16.00;99.90;;;;;;5033543;28;20076;-75
2023/09/04 08:33:00;;;;;;;12.30;9.32;;;16.10;99.90;;;;;;5014680;28;20110;-75
2023/09/04 08:35:29;;;;;;;12.00;8.55;;;16.80;99.90;;;;;;5051497;28;20048;-75
2023/09/04 08:37:56;;;;;;;12.77;9.00;;;16.30;99.90;;;;;;5051359;28;20102;-75
2023/09/04 08:40:22;;;;;;;11.50;8.80;;;16.40;99.90;;;;;;5017357;28;20045;-75
2023/09/04 08:42:49;;;;;;;10.30;8.30;;;16.50;99.90;;;;;;5033240;28;20037;-75
2023/09/04 08:45:17;;;;;;;10.95;8.32;;;16.50;99.90;;;;;;5052977;22;20044;-80
2023/09/04 08:47:43;;;;;;;9.68;8.63;;;16.60;99.90;;;;;;5051835;28;20492;-79
2023/09/04 08:50:10;;;;;;;9.88;8.50;;;16.70;99.90;;;;;;5046725;28;20037;-79
2023/09/04 08:52:37;;;;;;;12.05;8.23;;;16.80;99.90;;;;;;5051173;28;20055;-78
2023/09/04 08:55:07;;;;;;;10.02;7.60;;;16.90;99.90;;;;;;5033163;28;20429;-78
2023/09/04 08:57:33;;;;;;;7.03;6.25;;;17.20;99.90;;;;;;5054023;28;20522;-79
2023/09/04 08:59:59;;;;;;;9.45;6.97;;;17.40;99.90;;;;;;5055348;28;20091;-80
2023/09/04 09:02:25;;;;;;;8.32;6.57;;;17.50;99.90;;;;;;5069509;28;20076;-81
2023/09/04 09:04:52;;;;;;;9.15;6.57;;;17.80;99.90;;;;;;5053639;28;20075;-78
2023/09/04 09:07:20;;;;;;;7.50;5.32;;;17.90;99.90;;;;;;5050604;28;20048;-78
2023/09/04 09:09:50;;;;;;;8.63;5.70;;;18.20;99.90;;;;;;5052164;28;20048;-79
2023/09/04 09:12:15;;;;;;;6.75;5.13;;;18.40;99.90;;;;;;5056151;28;20518;-78
2023/09/04 09:14:41;;;;;;;6.95;4.63;;;18.90;99.90;;;;;;5056257;28;20080;-81
2023/09/04 09:17:14;;;;;;;5.78;4.07;;;19.00;99.90;;;;;;5053798;28;20036;-78
2023/09/04 09:19:41;;;;;;;5.28;4.07;;;19.30;99.90;;;;;;5053148;28;20047;-79
2023/09/04 09:22:15;;;;;;;5.93;4.00;;;19.40;99.90;;;;;;5053757;28;20080;-78
2023/09/04 09:25:00;;;;;;;7.22;4.20;;;19.60;99.90;;;;;;5055173;28;20950;-78
2023/09/04 09:27:30;;;;;;;;;;;20.00;99.90;;;;;;5056387;28;20049;-78
2023/09/04 09:30:00;;;;;;;7.50;4.13;;;20.20;99.90;;;;;;5039272;28;19924;-79
2023/09/04 09:32:32;;;;;;;6.40;3.80;;;20.40;99.90;;;;;;5053185;28;20059;-78
2023/09/04 09:35:00;;;;;;;5.32;3.97;;;20.60;99.90;;;;;;5055556;28;20055;-78
2023/09/04 09:37:29;;;;;;;7.10;4.15;;;20.80;99.90;;;;;;5038680;28;20123;-78
2023/09/04 09:39:54;;;;;;;7.03;4.20;;;21.00;99.90;;;;;;5051352;28;20436;-78
2023/09/04 09:42:20;;;;;;;10.98;4.68;;;21.20;99.90;;;;;;5055841;28;20039;-81
2023/09/04 09:44:46;;;;;;;5.90;4.47;;;21.30;99.90;;;;;;5055166;28;20109;-78
2023/09/04 09:47:13;;;;;;;5.68;4.10;;;21.40;99.90;;;;;;5055826;28;20044;-78
2023/09/04 09:49:40;;;;;;;6.78;4.22;;;21.70;99.90;;;;;;5055200;28;20052;-79
2023/09/04 09:52:10;;;;;;;5.97;4.00;;;21.90;99.90;;;;;;5055800;28;20380;-78
2023/09/04 09:54:39;;;;;;;7.13;4.30;;;22.00;99.90;;;;;;5048149;28;20581;-78
2023/09/04 09:57:10;;;;;;;6.18;3.90;;;22.20;99.90;;;;;;5047767;28;20045;-78
2023/09/04 09:59:38;;;;;;;5.85;4.40;;;22.40;99.90;;;;;;5055439;28;20526;-78
2023/09/04 10:02:05;;;;;;;5.30;4.15;;;22.70;99.90;;;;;;5048179;28;20435;-78
2023/09/04 10:04:32;;;;;;;5.60;3.97;;;22.80;99.90;;;;;;5055128;28;20040;-78
2023/09/04 10:07:00;;;;;;;5.95;3.78;;;23.00;99.90;;;;;;5038530;28;20492;-78
2023/09/04 10:09:27;;;;;;;6.57;3.67;;;23.00;99.90;;;;;;5049741;28;20055;-78
2023/09/04 10:12:06;;;;;;;8.10;3.75;;;23.00;99.90;;;;;;5054979;28;20040;-81
2023/09/04 10:14:39;;;;;;;5.55;4.40;;;23.20;99.90;;;;;;5055280;28;20040;-78
2023/09/04 10:17:08;;;;;;;5.43;3.67;;;23.30;99.90;;;;;;5053340;28;20048;-78
2023/09/04 10:19:39;;;;;;;5.28;3.42;;;23.40;99.90;;;;;;5047166;28;20070;-78
2023/09/04 10:22:19;;;;;;;5.97;4.10;;;23.30;99.90;;;;;;5047256;28;20123;-80
2023/09/04 10:24:45;;;;;;;5.32;3.60;;;23.50;99.90;;;;;;5047660;28;20037;-78
2023/09/04 10:27:13;;;;;;;4.72;3.70;;;23.70;99.90;;;;;;5069489;28;20093;-78
2023/09/04 10:29:47;;;;;;;4.97;3.17;;;23.80;99.90;;;;;;5048357;28;20079;-78
2023/09/04 10:32:13;;;;;;;5.50;3.65;;;23.90;99.90;;;;;;5067019;28;20048;-78
2023/09/04 10:34:41;;;;;;;4.75;3.03;;;24.10;99.90;;;;;;5046279;28;20037;-78
2023/09/04 10:37:10;;;;;;;7.50;2.95;;;24.20;99.90;;;;;;5045343;28;20044;-78
2023/09/04 10:39:37;;;;;;;4.30;2.95;;;24.20;99.90;;;;;;5046293;28;20116;-78
2023/09/04 10:42:04;;;;;;;4.18;2.80;;;24.30;99.90;;;;;;5054913;28;20041;-78
2023/09/04 10:44:51;;;;;;;4.82;2.88;;;24.40;99.90;;;;;;5048370;28;20045;-78
2023/09/04 10:47:17;;;;;;;4.50;2.95;;;24.50;99.90;;;;;;5041697;28;20155;-78
2023/09/04 10:49:44;;;;;;;4.22;3.05;;;24.60;99.90;;;;;;5047438;28;20053;-78
2023/09/04 10:52:11;;;;;;;3.72;2.92;;;24.70;99.90;;;;;;5054915;28;20123;-78
2023/09/04 10:54:37;;;;;;;4.25;2.90;;;24.80;99.90;;;;;;5051308;28;20059;-80
2023/09/04 10:57:07;;;;;;;5.65;2.80;;;24.90;99.90;;;;;;5050605;28;20484;-78
2023/09/04 10:59:52;;;;;;;6.18;3.30;;;25.10;99.90;;;;;;5053218;28;20043;-79
2023/09/04 11:02:28;;;;;;;5.60;2.70;;;25.20;99.90;;;;;;5022367;28;20052;-75
2023/09/04 11:04:54;;;;;;;3.95;3.22;;;25.30;99.90;;;;;;5067326;28;20041;-82
2023/09/04 11:07:25;;;;;;;3.65;2.42;;;25.40;99.90;;;;;;5051972;28;20504;-79
2023/09/04 11:10:14;;;;;;;6.55;3.00;;;25.60;99.90;;;;;;5051668;28;20114;-80
2023/09/04 11:12:43;;;;;;;3.80;2.88;;;25.70;99.90;;;;;;5050551;28;20044;-79
2023/09/04 11:15:15;;;;;;;4.53;3.00;;;25.70;99.90;;;;;;5050215;28;20051;-80
2023/09/04 11:17:45;;;;;;;6.85;2.70;;;25.90;99.70;;;;;;5046150;28;20561;-79
2023/09/04 11:20:14;;;;;;;5.57;2.88;;;25.90;99.40;;;;;;5052015;28;20091;-79
2023/09/04 11:22:46;;;;;;;2.78;2.30;;;26.00;99.30;;;;;;5046413;28;20393;-80
2023/09/04 11:25:11;;;;;;;3.40;2.63;;;26.10;98.80;;;;;;5070950;28;20499;-80
2023/09/04 11:27:38;;;;;;;9.57;2.92;;;26.20;98.80;;;;;;5053130;28;20064;-80
2023/09/04 11:30:04;;;;;;;3.40;2.78;;;26.10;98.20;;;;;;5048572;28;20093;-80
2023/09/04 11:32:35;;;;;;;6.40;3.28;;;26.10;98.40;;;;;;5051881;28;20044;-80
2023/09/04 11:35:01;;;;;;;4.22;2.80;;;26.10;98.00;;;;;;5067454;28;20041;-79
2023/09/04 11:37:32;;;;;;;6.07;2.85;;;26.20;98.10;;;;;;5043467;28;20055;-80
2023/09/04 11:39:59;;;;;;;3.10;2.22;;;26.20;97.50;;;;;;5053482;28;20080;-81
2023/09/04 11:42:27;;;;;;;3.55;2.58;;;26.20;97.70;;;;;;5047676;28;20512;-80
2023/09/04 11:44:53;;;;;;;4.95;2.80;;;26.10;97.50;;;;;;5052988;28;20040;-80
2023/09/04 11:47:20;;;;;;;3.75;2.45;;;26.10;97.30;;;;;;5036735;28;20032;-79
2023/09/04 11:49:46;;;;;;;3.53;2.58;;;26.00;97.10;;;;;;5049621;28;20044;-79
2023/09/04 11:52:13;;;;;;;4.15;2.13;;;26.00;97.20;;;;;;5034123;28;20032;-79
2023/09/04 11:54:40;;;;;;;4.32;2.50;;;25.80;96.80;;;;;;5048662;28;20052;-79
2023/09/04 11:57:06;;;;;;;2.90;2.13;;;25.80;96.70;;;;;;5036637;28;20070;-79
2023/09/04 11:59:36;;;;;;;6.95;2.83;;;25.70;96.90;;;;;;5046821;28;20545;-80
2023/09/04 12:02:03;;;;;;;2.83;2.25;;;25.80;97.00;;;;;;5050438;28;20044;-80
2023/09/04 12:04:31;;;;;;;4.63;2.40;;;26.00;97.30;;;;;;5050705;28;20488;-79
2023/09/04 12:06:59;;;;;;;3.58;2.30;;;26.10;97.40;;;;;;5051209;28;20516;-78
2023/09/04 12:09:25;;;;;;;2.97;2.20;;;26.20;97.40;;;;;;5031566;28;20043;-78
2023/09/04 12:11:51;;;;;;;4.25;2.38;;;26.30;97.20;;;;;;5048210;28;20108;-78
2023/09/04 12:14:17;;;;;;;3.05;1.98;;;26.40;97.00;;;;;;5029547;28;20151;-79
2023/09/04 12:16:44;;;;;;;6.05;2.67;;;26.50;96.80;;;;;;5067070;28;20041;-79
2023/09/04 12:19:10;;;;;;;4.95;2.50;;;26.60;96.40;;;;;;5044536;28;20511;-78
2023/09/04 12:21:35;;;;;;;3.00;2.17;;;26.70;96.20;;;;;;5071471;28;20036;-78
2023/09/04 12:24:01;;;;;;;3.60;2.20;;;26.90;96.10;;;;;;5070714;28;20103;-78
2023/09/04 12:26:27;;;;;;;3.08;2.20;;;26.90;96.30;;;;;;5051514;28;20496;-78
2023/09/04 12:28:52;;;;;;;4.97;2.60;;;27.00;96.10;;;;;;5046112;28;20120;-78
2023/09/04 12:31:23;;;;;;;4.18;2.10;;;27.10;96.10;;;;;;5047124;28;20163;-78
2023/09/04 12:33:50;;;;;;;3.15;2.03;;;27.00;95.80;;;;;;5052945;28;20504;-80
2023/09/04 12:36:20;;;;;;;2.88;1.88;;;27.00;95.30;;;;;;5063580;28;20037;-79
2023/09/04 12:38:46;;;;;;;2.65;1.90;;;27.00;94.50;;;;;;5049921;28;20045;-78
2023/09/04 12:41:12;;;;;;;3.95;1.90;;;27.00;94.10;;;;;;5052994;28;20140;-78
2023/09/04 12:43:37;;;;;;;3.75;1.90;;;26.90;94.40;;;;;;5049727;28;20048;-82